sensor_id;sensor_type;location;lat;lon;timestamp;P1;durP1;ratioP1;P2;durP2;ratioP2
75914;SDS011;64593;51.050;13.780;2023-11-21T07:05:14;9.88;;;3.40;;
75914;SDS011;64593;51.050;13.780;2023-11-21T07:10:28;11.18;;;3.67;;
75914;SDS011;64593;51.050;13.780;2023-11-21T07:15:32;10.20;;;3.17;;
75914;SDS011;64593;51.050;13.780;2023-11-21T07:20:34;13.80;;;4.38;;
75914;SDS011;64593;51.050;13.780;2023-11-21T07:25:36;13.25;;;4.80;;
75914;SDS011;64593;51.050;13.780;2023-11-21T07:31:03;10.30;;;4.13;;
75914;SDS011;64593;51.050;13.780;2023-11-21T07:36:05;10.43;;;3.33;;
75914;SDS011;64593;51.050;13.780;2023-11-21T07:41:08;16.30;;;3.90;;
75914;SDS011;64593;51.050;13.780;2023-11-21T07:46:19;13.10;;;4.45;;
75914;SDS011;64593;51.050;13.780;2023-11-21T07:51:23;12.90;;;4.18;;
75914;SDS011;64593;51.050;13.780;2023-11-21T07:56:28;14.32;;;4.43;;
75914;SDS011;64593;51.050;13.780;2023-11-21T08:01:30;11.63;;;4.78;;
75914;SDS011;64593;51.050;13.780;2023-11-21T08:06:33;12.60;;;4.75;;
75914;SDS011;64593;51.050;13.780;2023-11-21T08:11:35;13.10;;;4.00;;
75914;SDS011;64593;51.050;13.780;2023-11-21T08:16:37;17.75;;;4.93;;
75914;SDS011;64593;51.050;13.780;2023-11-21T08:21:39;15.10;;;4.90;;
75914;SDS011;64593;51.050;13.780;2023-11-21T08:26:44;16.42;;;5.43;;
75914;SDS011;64593;51.050;13.780;2023-11-21T08:31:52;20.20;;;6.47;;
75914;SDS011;64593;51.050;13.780;2023-11-21T08:36:59;16.73;;;6.60;;
75914;SDS011;64593;51.050;13.780;2023-11-21T08:42:03;20.00;;;7.00;;
75914;SDS011;64593;51.050;13.780;2023-11-21T08:47:05;18.35;;;6.93;;
75914;SDS011;64593;51.050;13.780;2023-11-21T08:52:13;26.80;;;7.55;;
75914;SDS011;64593;51.050;13.780;2023-11-21T08:57:19;21.25;;;7.75;;
75914;SDS011;64593;51.050;13.780;2023-11-21T09:02:28;21.10;;;6.78;;
75914;SDS011;64593;51.050;13.780;2023-11-21T09:07:35;18.15;;;7.47;;
75914;SDS011;64593;51.050;13.780;2023-11-21T09:12:37;22.55;;;7.85;;
75914;SDS011;64593;51.050;13.780;2023-11-21T09:17:45;15.77;;;6.95;;
75914;SDS011;64593;51.050;13.780;2023-11-21T09:22:47;18.42;;;6.80;;
75914;SDS011;64593;51.050;13.780;2023-11-21T09:27:49;13.23;;;6.40;;
75914;SDS011;64593;51.050;13.780;2023-11-21T09:32:57;17.00;;;7.25;;
75914;SDS011;64593;51.050;13.780;2023-11-21T09:38:00;18.25;;;8.85;;
75914;SDS011;64593;51.050;13.780;2023-11-21T09:43:08;16.13;;;8.35;;
75914;SDS011;64593;51.050;13.780;2023-11-21T09:48:42;15.95;;;7.93;;
75914;SDS011;64593;51.050;13.780;2023-11-21T09:53:47;11.38;;;6.25;;
75914;SDS011;64593;51.050;13.780;2023-11-21T09:58:51;9.75;;;3.53;;
75914;SDS011;64593;51.050;13.780;2023-11-21T10:03:56;9.68;;;3.70;;
75914;SDS011;64593;51.050;13.780;2023-11-21T10:09:02;8.25;;;4.80;;
75914;SDS011;64593;51.050;13.780;2023-11-21T10:14:05;9.98;;;7.32;;
75914;SDS011;64593;51.050;13.780;2023-11-21T10:19:11;13.48;;;8.40;;
75914;SDS011;64593;51.050;13.780;2023-11-21T10:24:15;19.45;;;10.13;;
75914;SDS011;64593;51.050;13.780;2023-11-21T10:29:43;18.65;;;10.85;;
75914;SDS011;64593;51.050;13.780;2023-11-21T10:35:10;16.77;;;8.55;;
75914;SDS011;64593;51.050;13.780;2023-11-21T10:40:12;11.60;;;6.60;;
75914;SDS011;64593;51.050;13.780;2023-11-21T10:45:16;10.35;;;6.03;;
75914;SDS011;64593;51.050;13.780;2023-11-21T10:50:45;13.40;;;7.25;;
75914;SDS011;64593;51.050;13.780;2023-11-21T10:55:48;12.95;;;7.15;;
75914;SDS011;64593;51.050;13.780;2023-11-21T11:01:15;15.10;;;8.25;;
75914;SDS011;64593;51.050;13.780;2023-11-21T11:06:19;18.80;;;8.80;;
75914;SDS011;64593;51.050;13.780;2023-11-21T11:11:46;15.93;;;7.30;;
75914;SDS011;64593;51.050;13.780;2023-11-21T11:17:13;7.82;;;4.05;;
75914;SDS011;64593;51.050;13.780;2023-11-21T11:38:38;14.15;;;5.38;;
75914;SDS011;64593;51.050;13.780;2023-11-21T11:43:40;8.57;;;5.20;;
75914;SDS011;64593;51.050;13.780;2023-11-21T11:48:48;9.00;;;5.15;;
75914;SDS011;64593;51.050;13.780;2023-11-21T11:53:52;11.13;;;5.45;;
75914;SDS011;64593;51.050;13.780;2023-11-21T11:58:55;7.78;;;5.30;;
75914;SDS011;64593;51.050;13.780;2023-11-21T12:09:20;9.75;;;5.60;;
75914;SDS011;64593;51.050;13.780;2023-11-21T12:14:24;13.02;;;6.05;;
75914;SDS011;64593;51.050;13.780;2023-11-21T12:19:31;10.95;;;5.65;;
75914;SDS011;64593;51.050;13.780;2023-11-21T12:24:58;13.13;;;6.00;;
75914;SDS011;64593;51.050;13.780;2023-11-21T12:30:01;10.35;;;5.97;;
75914;SDS011;64593;51.050;13.780;2023-11-21T12:35:03;8.27;;;5.35;;
75914;SDS011;64593;51.050;13.780;2023-11-21T12:40:08;10.68;;;6.13;;
75914;SDS011;64593;51.050;13.780;2023-11-21T12:45:38;9.35;;;5.60;;
75914;SDS011;64593;51.050;13.780;2023-11-21T12:50:40;12.27;;;6.72;;
75914;SDS011;64593;51.050;13.780;2023-11-21T12:55:43;11.45;;;6.88;;
75914;SDS011;64593;51.050;13.780;2023-11-21T13:00:56;11.27;;;7.22;;
75914;SDS011;64593;51.050;13.780;2023-11-21T13:06:00;12.43;;;7.30;;
75914;SDS011;64593;51.050;13.780;2023-11-21T13:11:04;16.17;;;8.73;;
75914;SDS011;64593;51.050;13.780;2023-11-21T13:16:07;16.83;;;9.35;;
75914;SDS011;64593;51.050;13.780;2023-11-21T13:21:10;17.33;;;9.80;;
75914;SDS011;64593;51.050;13.780;2023-11-21T13:26:21;16.83;;;9.40;;
75914;SDS011;64593;51.050;13.780;2023-11-21T13:36:59;22.08;;;9.52;;
75914;SDS011;64593;51.050;13.780;2023-11-21T13:42:27;26.25;;;11.43;;
75914;SDS011;64593;51.050;13.780;2023-11-21T13:47:30;22.40;;;9.85;;
75914;SDS011;64593;51.050;13.780;2023-11-21T13:52:58;20.98;;;10.18;;
75914;SDS011;64593;51.050;13.780;2023-11-21T13:58:05;26.25;;;10.90;;
75914;SDS011;64593;51.050;13.780;2023-11-21T14:03:11;24.58;;;10.73;;
75914;SDS011;64593;51.050;13.780;2023-11-21T14:08:22;23.67;;;10.02;;
75914;SDS011;64593;51.050;13.780;2023-11-21T14:13:55;23.88;;;9.75;;
75914;SDS011;64593;51.050;13.780;2023-11-21T14:19:22;19.77;;;8.73;;
75914;SDS011;64593;51.050;13.780;2023-11-21T14:24:28;17.10;;;8.75;;
75914;SDS011;64593;51.050;13.780;2023-11-21T14:29:56;16.50;;;8.13;;
75914;SDS011;64593;51.050;13.780;2023-11-21T14:34:58;22.30;;;9.27;;
75914;SDS011;64593;51.050;13.780;2023-11-21T14:40:00;19.48;;;9.38;;
75914;SDS011;64593;51.050;13.780;2023-11-21T14:45:27;24.30;;;9.90;;
75914;SDS011;64593;51.050;13.780;2023-11-21T14:50:30;14.02;;;7.75;;
75914;SDS011;64593;51.050;13.780;2023-11-21T14:56:36;13.55;;;7.15;;
75914;SDS011;64593;51.050;13.780;2023-11-21T15:06:46;13.13;;;6.75;;
75914;SDS011;64593;51.050;13.780;2023-11-21T15:12:15;10.77;;;4.65;;
75914;SDS011;64593;51.050;13.780;2023-11-21T15:17:42;7.65;;;4.25;;
75914;SDS011;64593;51.050;13.780;2023-11-21T15:23:10;9.48;;;3.75;;
75914;SDS011;64593;51.050;13.780;2023-11-21T15:28:14;8.27;;;4.30;;
75914;SDS011;64593;51.050;13.780;2023-11-21T15:33:40;10.30;;;4.28;;
75914;SDS011;64593;51.050;13.780;2023-11-21T15:38:44;6.95;;;3.83;;
75914;SDS011;64593;51.050;13.780;2023-11-21T15:44:12;11.77;;;5.45;;
75914;SDS011;64593;51.050;13.780;2023-11-21T15:49:14;7.18;;;4.68;;
75914;SDS011;64593;51.050;13.780;2023-11-21T15:54:45;11.02;;;6.05;;
75914;SDS011;64593;51.050;13.780;2023-11-21T15:59:47;14.82;;;5.25;;
75914;SDS011;64593;51.050;13.780;2023-11-21T16:04:49;9.98;;;4.88;;
75914;SDS011;64593;51.050;13.780;2023-11-21T16:10:16;9.80;;;5.63;;
75914;SDS011;64593;51.050;13.780;2023-11-21T16:15:17;9.68;;;6.25;;
75914;SDS011;64593;51.050;13.780;2023-11-21T16:20:21;9.35;;;5.32;;
75914;SDS011;64593;51.050;13.780;2023-11-21T16:25:24;9.55;;;5.22;;
75914;SDS011;64593;51.050;13.780;2023-11-21T16:30:25;9.98;;;4.65;;
75914;SDS011;64593;51.050;13.780;2023-11-21T16:35:54;6.68;;;4.20;;
75914;SDS011;64593;51.050;13.780;2023-11-21T16:40:58;7.78;;;4.45;;
75914;SDS011;64593;51.050;13.780;2023-11-21T16:46:00;6.22;;;4.18;;
75914;SDS011;64593;51.050;13.780;2023-11-21T16:51:27;6.50;;;3.22;;
75914;SDS011;64593;51.050;13.780;2023-11-21T16:56:28;2.85;;;1.30;;
75914;SDS011;64593;51.050;13.780;2023-11-21T17:01:30;3.55;;;1.85;;
75914;SDS011;64593;51.050;13.780;2023-11-21T17:07:05;3.63;;;1.15;;
75914;SDS011;64593;51.050;13.780;2023-11-21T17:12:33;2.30;;;1.30;;
75914;SDS011;64593;51.050;13.780;2023-11-21T17:18:00;2.80;;;1.60;;
75914;SDS011;64593;51.050;13.780;2023-11-21T17:23:28;3.75;;;1.65;;
75914;SDS011;64593;51.050;13.780;2023-11-21T17:28:30;4.43;;;2.33;;
75914;SDS011;64593;51.050;13.780;2023-11-21T17:33:57;3.80;;;1.80;;
75914;SDS011;64593;51.050;13.780;2023-11-21T17:38:59;5.03;;;2.65;;
75914;SDS011;64593;51.050;13.780;2023-11-21T17:44:26;4.85;;;2.33;;
75914;SDS011;64593;51.050;13.780;2023-11-21T17:49:59;4.10;;;2.55;;
75914;SDS011;64593;51.050;13.780;2023-11-21T17:55:28;4.30;;;2.63;;
75914;SDS011;64593;51.050;13.780;2023-11-21T18:00:29;4.43;;;2.90;;
75914;SDS011;64593;51.050;13.780;2023-11-21T18:05:57;3.50;;;1.85;;
75914;SDS011;64593;51.050;13.780;2023-11-21T18:10:59;5.00;;;2.78;;
75914;SDS011;64593;51.050;13.780;2023-11-21T18:16:25;3.85;;;2.03;;
75914;SDS011;64593;51.050;13.780;2023-11-21T18:21:27;3.17;;;2.15;;
75914;SDS011;64593;51.050;13.780;2023-11-21T18:26:55;4.40;;;2.60;;
75914;SDS011;64593;51.050;13.780;2023-11-21T18:32:22;3.70;;;2.35;;
75914;SDS011;64593;51.050;13.780;2023-11-21T18:37:53;3.28;;;1.90;;
75914;SDS011;64593;51.050;13.780;2023-11-21T18:42:56;2.75;;;1.75;;
75914;SDS011;64593;51.050;13.780;2023-11-21T18:48:23;3.55;;;2.25;;
75914;SDS011;64593;51.050;13.780;2023-11-21T18:53:29;4.22;;;2.42;;
75914;SDS011;64593;51.050;13.780;2023-11-21T18:59:00;2.67;;;1.90;;
75914;SDS011;64593;51.050;13.780;2023-11-21T19:04:02;7.68;;;1.90;;
75914;SDS011;64593;51.050;13.780;2023-11-21T19:09:06;2.28;;;1.45;;
75914;SDS011;64593;51.050;13.780;2023-11-21T19:14:34;4.70;;;1.70;;
75914;SDS011;64593;51.050;13.780;2023-11-21T19:20:00;2.58;;;1.52;;
75914;SDS011;64593;51.050;13.780;2023-11-21T19:25:28;2.20;;;1.38;;
75914;SDS011;64593;51.050;13.780;2023-11-21T19:30:57;3.13;;;1.52;;
75914;SDS011;64593;51.050;13.780;2023-11-21T19:36:00;2.72;;;1.52;;
75914;SDS011;64593;51.050;13.780;2023-11-21T19:41:28;5.13;;;1.88;;
75914;SDS011;64593;51.050;13.780;2023-11-21T19:46:33;2.60;;;1.42;;
75914;SDS011;64593;51.050;13.780;2023-11-21T19:52:00;3.28;;;1.80;;
75914;SDS011;64593;51.050;13.780;2023-11-21T19:57:02;2.88;;;1.58;;
75914;SDS011;64593;51.050;13.780;2023-11-21T20:02:30;3.03;;;1.90;;
75914;SDS011;64593;51.050;13.780;2023-11-21T20:07:35;3.80;;;2.45;;
75914;SDS011;64593;51.050;13.780;2023-11-21T20:12:37;3.60;;;2.35;;
75914;SDS011;64593;51.050;13.780;2023-11-21T20:17:41;5.05;;;2.47;;
75914;SDS011;64593;51.050;13.780;2023-11-21T20:22:45;5.07;;;2.80;;
75914;SDS011;64593;51.050;13.780;2023-11-21T20:27:48;4.93;;;2.70;;
75914;SDS011;64593;51.050;13.780;2023-11-21T20:32:50;3.88;;;2.30;;
75914;SDS011;64593;51.050;13.780;2023-11-21T20:37:52;3.30;;;2.13;;
75914;SDS011;64593;51.050;13.780;2023-11-21T20:42:54;4.30;;;2.70;;
75914;SDS011;64593;51.050;13.780;2023-11-21T20:48:29;4.05;;;2.58;;
75914;SDS011;64593;51.050;13.780;2023-11-21T20:53:31;4.93;;;2.90;;
75914;SDS011;64593;51.050;13.780;2023-11-21T20:58:59;5.22;;;2.80;;
75914;SDS011;64593;51.050;13.780;2023-11-21T21:04:06;4.38;;;3.05;;
75914;SDS011;64593;51.050;13.780;2023-11-21T21:09:10;4.93;;;3.65;;
75914;SDS011;64593;51.050;13.780;2023-11-21T21:14:12;7.47;;;4.22;;
75914;SDS011;64593;51.050;13.780;2023-11-21T21:19:14;8.43;;;4.95;;
75914;SDS011;64593;51.050;13.780;2023-11-21T21:24:41;7.25;;;4.70;;
75914;SDS011;64593;51.050;13.780;2023-11-21T21:29:43;8.60;;;5.07;;
75914;SDS011;64593;51.050;13.780;2023-11-21T21:35:10;8.60;;;5.13;;
75914;SDS011;64593;51.050;13.780;2023-11-21T21:40:14;13.90;;;6.25;;
75914;SDS011;64593;51.050;13.780;2023-11-21T21:45:41;9.52;;;6.15;;
75914;SDS011;64593;51.050;13.780;2023-11-21T21:51:16;10.80;;;6.25;;
75914;SDS011;64593;51.050;13.780;2023-11-21T21:56:43;10.52;;;6.38;;
75914;SDS011;64593;51.050;13.780;2023-11-21T22:02:10;10.50;;;6.60;;
75914;SDS011;64593;51.050;13.780;2023-11-21T22:07:13;10.18;;;6.68;;
75914;SDS011;64593;51.050;13.780;2023-11-21T22:12:15;10.23;;;6.93;;
75914;SDS011;64593;51.050;13.780;2023-11-21T22:17:42;10.82;;;7.10;;
75914;SDS011;64593;51.050;13.780;2023-11-21T22:22:45;13.35;;;9.10;;
75914;SDS011;64593;51.050;13.780;2023-11-21T22:27:47;13.50;;;7.93;;
75914;SDS011;64593;51.050;13.780;2023-11-21T22:33:13;13.25;;;9.02;;
75914;SDS011;64593;51.050;13.780;2023-11-21T22:38:15;12.77;;;7.78;;
75914;SDS011;64593;51.050;13.780;2023-11-21T22:43:19;13.90;;;8.48;;
75914;SDS011;64593;51.050;13.780;2023-11-21T22:48:46;13.35;;;7.97;;
75914;SDS011;64593;51.050;13.780;2023-11-21T22:53:49;12.82;;;8.25;;
75914;SDS011;64593;51.050;13.780;2023-11-21T22:59:17;13.38;;;8.52;;
